sensor_id;sensor_type;location;lat;lon;timestamp;P1;durP1;ratioP1;P2;durP2;ratioP2
25231;SDS011;13176;51.140;6.290;2022-11-20T00:01:27;21.58;;;19.73;;
25231;SDS011;13176;51.140;6.290;2022-11-20T00:03:55;20.90;;;19.10;;
25231;SDS011;13176;51.140;6.290;2022-11-20T00:06:23;21.20;;;19.35;;
25231;SDS011;13176;51.140;6.290;2022-11-20T00:08:51;20.08;;;18.38;;
25231;SDS011;13176;51.140;6.290;2022-11-20T00:11:20;21.70;;;19.70;;
25231;SDS011;13176;51.140;6.290;2022-11-20T00:13:49;20.42;;;18.65;;
25231;SDS011;13176;51.140;6.290;2022-11-20T00:16:19;21.60;;;19.80;;
25231;SDS011;13176;51.140;6.290;2022-11-20T00:18:50;20.85;;;18.95;;
25231;SDS011;13176;51.140;6.290;2022-11-20T00:21:18;20.83;;;19.02;;
25231;SDS011;13176;51.140;6.290;2022-11-20T00:23:47;20.85;;;19.13;;
25231;SDS011;13176;51.140;6.290;2022-11-20T00:26:16;20.83;;;19.13;;
25231;SDS011;13176;51.140;6.290;2022-11-20T00:28:55;21.90;;;19.95;;
25231;SDS011;13176;51.140;6.290;2022-11-20T00:31:23;22.05;;;20.15;;
25231;SDS011;13176;51.140;6.290;2022-11-20T00:33:50;20.48;;;18.77;;
25231;SDS011;13176;51.140;6.290;2022-11-20T00:36:18;20.95;;;19.17;;
25231;SDS011;13176;51.140;6.290;2022-11-20T00:38:46;21.77;;;19.88;;
25231;SDS011;13176;51.140;6.290;2022-11-20T00:41:17;22.08;;;19.67;;
25231;SDS011;13176;51.140;6.290;2022-11-20T00:43:43;21.30;;;19.48;;
25231;SDS011;13176;51.140;6.290;2022-11-20T00:46:12;21.30;;;19.40;;
25231;SDS011;13176;51.140;6.290;2022-11-20T00:48:40;21.30;;;19.42;;
25231;SDS011;13176;51.140;6.290;2022-11-20T00:51:07;20.77;;;18.95;;
25231;SDS011;13176;51.140;6.290;2022-11-20T00:53:34;20.45;;;18.75;;
25231;SDS011;13176;51.140;6.290;2022-11-20T00:56:01;21.77;;;19.77;;
25231;SDS011;13176;51.140;6.290;2022-11-20T00:58:36;21.23;;;19.33;;
25231;SDS011;13176;51.140;6.290;2022-11-20T01:01:17;21.23;;;19.38;;
25231;SDS011;13176;51.140;6.290;2022-11-20T01:03:50;19.38;;;17.77;;
25231;SDS011;13176;51.140;6.290;2022-11-20T01:06:19;20.45;;;18.75;;
25231;SDS011;13176;51.140;6.290;2022-11-20T01:08:47;20.13;;;18.40;;
25231;SDS011;13176;51.140;6.290;2022-11-20T01:11:18;19.42;;;17.73;;
25231;SDS011;13176;51.140;6.290;2022-11-20T01:13:51;20.65;;;18.65;;
25231;SDS011;13176;51.140;6.290;2022-11-20T01:16:19;19.38;;;17.63;;
25231;SDS011;13176;51.140;6.290;2022-11-20T01:18:48;19.38;;;17.63;;
25231;SDS011;13176;51.140;6.290;2022-11-20T01:21:18;21.48;;;19.67;;
25231;SDS011;13176;51.140;6.290;2022-11-20T01:23:50;20.85;;;19.02;;
25231;SDS011;13176;51.140;6.290;2022-11-20T01:26:18;19.77;;;17.98;;
25231;SDS011;13176;51.140;6.290;2022-11-20T01:28:47;21.17;;;19.25;;
25231;SDS011;13176;51.140;6.290;2022-11-20T01:31:18;20.40;;;18.65;;
25231;SDS011;13176;51.140;6.290;2022-11-20T01:33:46;20.17;;;18.23;;
25231;SDS011;13176;51.140;6.290;2022-11-20T01:36:15;20.85;;;19.05;;
25231;SDS011;13176;51.140;6.290;2022-11-20T01:38:42;20.48;;;18.77;;
25231;SDS011;13176;51.140;6.290;2022-11-20T01:41:09;20.88;;;19.00;;
25231;SDS011;13176;51.140;6.290;2022-11-20T01:43:57;20.05;;;18.35;;
25231;SDS011;13176;51.140;6.290;2022-11-20T01:46:24;18.92;;;17.10;;
25231;SDS011;13176;51.140;6.290;2022-11-20T01:48:56;21.10;;;19.13;;
25231;SDS011;13176;51.140;6.290;2022-11-20T01:54:11;20.58;;;18.60;;
25231;SDS011;13176;51.140;6.290;2022-11-20T01:56:43;20.40;;;18.60;;
25231;SDS011;13176;51.140;6.290;2022-11-20T01:59:13;19.65;;;17.95;;
25231;SDS011;13176;51.140;6.290;2022-11-20T02:01:43;19.42;;;17.73;;
25231;SDS011;13176;51.140;6.290;2022-11-20T02:04:13;21.77;;;19.73;;
25231;SDS011;13176;51.140;6.290;2022-11-20T02:06:50;19.98;;;18.20;;
25231;SDS011;13176;51.140;6.290;2022-11-20T02:09:23;19.20;;;17.42;;
25231;SDS011;13176;51.140;6.290;2022-11-20T02:11:49;19.48;;;17.55;;
25231;SDS011;13176;51.140;6.290;2022-11-20T02:14:16;19.50;;;17.73;;
25231;SDS011;13176;51.140;6.290;2022-11-20T02:16:44;20.10;;;18.30;;
25231;SDS011;13176;51.140;6.290;2022-11-20T02:19:15;18.98;;;17.30;;
25231;SDS011;13176;51.140;6.290;2022-11-20T02:24:27;19.33;;;17.73;;
25231;SDS011;13176;51.140;6.290;2022-11-20T02:26:54;20.33;;;18.55;;
25231;SDS011;13176;51.140;6.290;2022-11-20T02:29:42;20.10;;;18.30;;
25231;SDS011;13176;51.140;6.290;2022-11-20T02:32:20;19.58;;;17.67;;
25231;SDS011;13176;51.140;6.290;2022-11-20T02:34:48;19.88;;;18.08;;
25231;SDS011;13176;51.140;6.290;2022-11-20T02:37:15;19.83;;;18.08;;
25231;SDS011;13176;51.140;6.290;2022-11-20T02:39:43;19.38;;;17.58;;
25231;SDS011;13176;51.140;6.290;2022-11-20T02:42:12;20.45;;;18.50;;
25231;SDS011;13176;51.140;6.290;2022-11-20T02:44:38;19.20;;;17.52;;
25231;SDS011;13176;51.140;6.290;2022-11-20T02:47:05;20.65;;;18.67;;
25231;SDS011;13176;51.140;6.290;2022-11-20T02:49:31;19.45;;;17.70;;
25231;SDS011;13176;51.140;6.290;2022-11-20T02:51:57;20.00;;;17.98;;
25231;SDS011;13176;51.140;6.290;2022-11-20T02:54:24;19.70;;;17.90;;
25231;SDS011;13176;51.140;6.290;2022-11-20T02:56:51;19.70;;;17.88;;
25231;SDS011;13176;51.140;6.290;2022-11-20T02:59:17;20.13;;;18.23;;
25231;SDS011;13176;51.140;6.290;2022-11-20T03:01:47;20.25;;;18.30;;
25231;SDS011;13176;51.140;6.290;2022-11-20T03:04:13;18.77;;;17.08;;
25231;SDS011;13176;51.140;6.290;2022-11-20T03:06:42;23.63;;;18.23;;
25231;SDS011;13176;51.140;6.290;2022-11-20T03:09:08;19.50;;;17.55;;
25231;SDS011;13176;51.140;6.290;2022-11-20T03:11:35;19.38;;;17.48;;
25231;SDS011;13176;51.140;6.290;2022-11-20T03:14:02;20.30;;;18.38;;
25231;SDS011;13176;51.140;6.290;2022-11-20T03:16:30;22.05;;;19.90;;
25231;SDS011;13176;51.140;6.290;2022-11-20T03:18:57;21.70;;;19.70;;
25231;SDS011;13176;51.140;6.290;2022-11-20T03:21:24;20.90;;;18.77;;
25231;SDS011;13176;51.140;6.290;2022-11-20T03:23:50;20.90;;;18.95;;
25231;SDS011;13176;51.140;6.290;2022-11-20T03:26:19;22.10;;;19.95;;
25231;SDS011;13176;51.140;6.290;2022-11-20T03:28:55;21.88;;;19.77;;
25231;SDS011;13176;51.140;6.290;2022-11-20T03:31:27;20.33;;;18.50;;
25231;SDS011;13176;51.140;6.290;2022-11-20T03:33:57;20.80;;;18.80;;
25231;SDS011;13176;51.140;6.290;2022-11-20T03:36:25;21.20;;;19.30;;
25231;SDS011;13176;51.140;6.290;2022-11-20T03:38:55;21.17;;;19.23;;
25231;SDS011;13176;51.140;6.290;2022-11-20T03:41:24;20.95;;;18.95;;
25231;SDS011;13176;51.140;6.290;2022-11-20T03:43:56;21.38;;;19.13;;
25231;SDS011;13176;51.140;6.290;2022-11-20T03:46:26;21.92;;;19.75;;
25231;SDS011;13176;51.140;6.290;2022-11-20T03:48:53;19.73;;;17.92;;
25231;SDS011;13176;51.140;6.290;2022-11-20T03:53:52;19.58;;;17.77;;
25231;SDS011;13176;51.140;6.290;2022-11-20T03:56:26;20.85;;;18.85;;
25231;SDS011;13176;51.140;6.290;2022-11-20T03:58:54;20.67;;;18.80;;
25231;SDS011;13176;51.140;6.290;2022-11-20T04:01:33;20.17;;;18.27;;
25231;SDS011;13176;51.140;6.290;2022-11-20T04:04:03;21.23;;;19.13;;
25231;SDS011;13176;51.140;6.290;2022-11-20T04:06:32;20.90;;;18.92;;
25231;SDS011;13176;51.140;6.290;2022-11-20T04:09:01;20.25;;;18.27;;
25231;SDS011;13176;51.140;6.290;2022-11-20T04:11:28;21.48;;;19.38;;
25231;SDS011;13176;51.140;6.290;2022-11-20T04:13:57;20.98;;;18.92;;
25231;SDS011;13176;51.140;6.290;2022-11-20T04:16:31;21.48;;;19.35;;
25231;SDS011;13176;51.140;6.290;2022-11-20T04:19:00;20.20;;;18.30;;
25231;SDS011;13176;51.140;6.290;2022-11-20T04:21:28;20.15;;;17.75;;
25231;SDS011;13176;51.140;6.290;2022-11-20T04:23:54;21.08;;;18.95;;
25231;SDS011;13176;51.140;6.290;2022-11-20T04:26:22;20.73;;;18.63;;
25231;SDS011;13176;51.140;6.290;2022-11-20T04:28:50;19.85;;;18.05;;
25231;SDS011;13176;51.140;6.290;2022-11-20T04:31:18;19.52;;;17.73;;
25231;SDS011;13176;51.140;6.290;2022-11-20T04:33:45;19.48;;;17.65;;
25231;SDS011;13176;51.140;6.290;2022-11-20T04:36:13;19.50;;;17.52;;
25231;SDS011;13176;51.140;6.290;2022-11-20T04:38:44;21.38;;;19.27;;
25231;SDS011;13176;51.140;6.290;2022-11-20T04:41:15;21.33;;;19.25;;
25231;SDS011;13176;51.140;6.290;2022-11-20T04:43:47;20.67;;;18.67;;
25231;SDS011;13176;51.140;6.290;2022-11-20T04:46:15;21.13;;;19.13;;
25231;SDS011;13176;51.140;6.290;2022-11-20T04:48:42;18.92;;;17.10;;
25231;SDS011;13176;51.140;6.290;2022-11-20T04:51:09;21.38;;;19.23;;
25231;SDS011;13176;51.140;6.290;2022-11-20T04:53:35;20.55;;;18.67;;
25231;SDS011;13176;51.140;6.290;2022-11-20T04:56:03;21.17;;;19.13;;
25231;SDS011;13176;51.140;6.290;2022-11-20T04:58:31;20.77;;;18.88;;
25231;SDS011;13176;51.140;6.290;2022-11-20T05:01:14;20.38;;;18.30;;
25231;SDS011;13176;51.140;6.290;2022-11-20T05:06:14;19.35;;;17.55;;
25231;SDS011;13176;51.140;6.290;2022-11-20T05:08:42;21.40;;;19.27;;
25231;SDS011;13176;51.140;6.290;2022-11-20T05:11:10;21.63;;;19.27;;
25231;SDS011;13176;51.140;6.290;2022-11-20T05:13:38;21.63;;;19.60;;
25231;SDS011;13176;51.140;6.290;2022-11-20T05:16:07;21.17;;;19.13;;
25231;SDS011;13176;51.140;6.290;2022-11-20T05:18:35;20.35;;;18.23;;
25231;SDS011;13176;51.140;6.290;2022-11-20T05:21:03;20.63;;;18.63;;
25231;SDS011;13176;51.140;6.290;2022-11-20T05:23:30;20.25;;;18.35;;
25231;SDS011;13176;51.140;6.290;2022-11-20T05:25:58;20.73;;;18.63;;
25231;SDS011;13176;51.140;6.290;2022-11-20T05:28:25;20.58;;;18.40;;
25231;SDS011;13176;51.140;6.290;2022-11-20T05:30:53;19.80;;;18.00;;
25231;SDS011;13176;51.140;6.290;2022-11-20T05:33:19;19.83;;;17.90;;
25231;SDS011;13176;51.140;6.290;2022-11-20T05:35:46;20.15;;;18.25;;
25231;SDS011;13176;51.140;6.290;2022-11-20T05:38:12;20.52;;;18.77;;
25231;SDS011;13176;51.140;6.290;2022-11-20T05:40:39;21.55;;;19.55;;
25231;SDS011;13176;51.140;6.290;2022-11-20T05:43:05;21.73;;;19.50;;
25231;SDS011;13176;51.140;6.290;2022-11-20T05:45:32;22.08;;;19.88;;
25231;SDS011;13176;51.140;6.290;2022-11-20T05:47:59;20.90;;;18.85;;
25231;SDS011;13176;51.140;6.290;2022-11-20T05:50:28;19.77;;;18.05;;
25231;SDS011;13176;51.140;6.290;2022-11-20T05:52:57;20.65;;;18.65;;
25231;SDS011;13176;51.140;6.290;2022-11-20T05:55:26;20.80;;;18.95;;
25231;SDS011;13176;51.140;6.290;2022-11-20T05:57:53;20.42;;;18.50;;
25231;SDS011;13176;51.140;6.290;2022-11-20T06:00:20;22.02;;;19.83;;
25231;SDS011;13176;51.140;6.290;2022-11-20T06:02:49;20.45;;;18.55;;
25231;SDS011;13176;51.140;6.290;2022-11-20T06:05:15;22.45;;;20.25;;
25231;SDS011;13176;51.140;6.290;2022-11-20T06:07:42;21.55;;;19.45;;
25231;SDS011;13176;51.140;6.290;2022-11-20T06:10:08;21.75;;;19.60;;
25231;SDS011;13176;51.140;6.290;2022-11-20T06:12:35;20.67;;;18.55;;
25231;SDS011;13176;51.140;6.290;2022-11-20T06:15:01;20.77;;;18.95;;
25231;SDS011;13176;51.140;6.290;2022-11-20T06:17:28;19.85;;;18.05;;
25231;SDS011;13176;51.140;6.290;2022-11-20T06:19:55;21.27;;;19.33;;
25231;SDS011;13176;51.140;6.290;2022-11-20T06:22:21;21.65;;;19.75;;
25231;SDS011;13176;51.140;6.290;2022-11-20T06:24:48;20.50;;;18.63;;
25231;SDS011;13176;51.140;6.290;2022-11-20T06:27:16;21.02;;;19.08;;
25231;SDS011;13176;51.140;6.290;2022-11-20T06:29:43;21.08;;;18.98;;
25231;SDS011;13176;51.140;6.290;2022-11-20T06:32:10;20.33;;;18.45;;
25231;SDS011;13176;51.140;6.290;2022-11-20T06:34:36;20.95;;;19.05;;
25231;SDS011;13176;51.140;6.290;2022-11-20T06:37:02;20.83;;;18.70;;
25231;SDS011;13176;51.140;6.290;2022-11-20T06:39:29;21.83;;;19.20;;
25231;SDS011;13176;51.140;6.290;2022-11-20T06:41:55;20.65;;;18.60;;
25231;SDS011;13176;51.140;6.290;2022-11-20T06:44:24;19.45;;;17.58;;
25231;SDS011;13176;51.140;6.290;2022-11-20T06:46:51;21.77;;;19.55;;
25231;SDS011;13176;51.140;6.290;2022-11-20T06:49:17;21.90;;;19.63;;
25231;SDS011;13176;51.140;6.290;2022-11-20T06:51:44;21.08;;;19.17;;
25231;SDS011;13176;51.140;6.290;2022-11-20T06:54:10;21.02;;;19.02;;
25231;SDS011;13176;51.140;6.290;2022-11-20T06:56:37;20.20;;;18.25;;
25231;SDS011;13176;51.140;6.290;2022-11-20T06:59:04;20.80;;;18.80;;
25231;SDS011;13176;51.140;6.290;2022-11-20T07:01:31;22.85;;;20.35;;
25231;SDS011;13176;51.140;6.290;2022-11-20T07:03:58;21.13;;;19.23;;
25231;SDS011;13176;51.140;6.290;2022-11-20T07:06:24;20.88;;;18.80;;
25231;SDS011;13176;51.140;6.290;2022-11-20T07:08:51;21.63;;;19.40;;
25231;SDS011;13176;51.140;6.290;2022-11-20T07:11:18;24.60;;;19.50;;
25231;SDS011;13176;51.140;6.290;2022-11-20T07:13:45;21.45;;;19.35;;
25231;SDS011;13176;51.140;6.290;2022-11-20T07:16:11;20.33;;;18.48;;
25231;SDS011;13176;51.140;6.290;2022-11-20T07:18:38;21.95;;;19.90;;
25231;SDS011;13176;51.140;6.290;2022-11-20T07:21:05;22.73;;;20.45;;
25231;SDS011;13176;51.140;6.290;2022-11-20T07:23:34;21.80;;;19.88;;
25231;SDS011;13176;51.140;6.290;2022-11-20T07:26:04;22.92;;;20.73;;
25231;SDS011;13176;51.140;6.290;2022-11-20T07:28:35;23.25;;;21.10;;
25231;SDS011;13176;51.140;6.290;2022-11-20T07:31:04;24.05;;;21.80;;
25231;SDS011;13176;51.140;6.290;2022-11-20T07:33:32;23.90;;;21.70;;
25231;SDS011;13176;51.140;6.290;2022-11-20T07:35:59;23.95;;;21.65;;
25231;SDS011;13176;51.140;6.290;2022-11-20T07:38:26;26.02;;;21.05;;
25231;SDS011;13176;51.140;6.290;2022-11-20T07:40:56;25.83;;;23.23;;
25231;SDS011;13176;51.140;6.290;2022-11-20T07:43:24;32.67;;;23.70;;
25231;SDS011;13176;51.140;6.290;2022-11-20T07:45:51;27.40;;;23.02;;
25231;SDS011;13176;51.140;6.290;2022-11-20T07:48:17;28.73;;;25.65;;
25231;SDS011;13176;51.140;6.290;2022-11-20T07:50:44;33.95;;;26.00;;
25231;SDS011;13176;51.140;6.290;2022-11-20T07:53:12;32.85;;;25.92;;
25231;SDS011;13176;51.140;6.290;2022-11-20T07:55:39;41.78;;;28.20;;
25231;SDS011;13176;51.140;6.290;2022-11-20T07:58:06;39.67;;;28.13;;
25231;SDS011;13176;51.140;6.290;2022-11-20T08:00:33;46.42;;;30.13;;
25231;SDS011;13176;51.140;6.290;2022-11-20T08:02:59;39.10;;;28.35;;
25231;SDS011;13176;51.140;6.290;2022-11-20T08:05:29;42.35;;;29.13;;
25231;SDS011;13176;51.140;6.290;2022-11-20T08:07:56;42.58;;;28.48;;
25231;SDS011;13176;51.140;6.290;2022-11-20T08:10:22;38.25;;;28.33;;
25231;SDS011;13176;51.140;6.290;2022-11-20T08:12:49;38.53;;;28.17;;
25231;SDS011;13176;51.140;6.290;2022-11-20T08:15:36;37.75;;;27.40;;
25231;SDS011;13176;51.140;6.290;2022-11-20T08:18:04;37.00;;;29.00;;
25231;SDS011;13176;51.140;6.290;2022-11-20T08:20:52;30.63;;;26.83;;
25231;SDS011;13176;51.140;6.290;2022-11-20T08:23:19;34.45;;;27.40;;
25231;SDS011;13176;51.140;6.290;2022-11-20T08:25:48;34.88;;;27.45;;
25231;SDS011;13176;51.140;6.290;2022-11-20T08:28:15;37.00;;;30.33;;
25231;SDS011;13176;51.140;6.290;2022-11-20T08:30:47;35.25;;;29.33;;
25231;SDS011;13176;51.140;6.290;2022-11-20T08:33:14;35.55;;;30.02;;
25231;SDS011;13176;51.140;6.290;2022-11-20T08:35:40;33.25;;;28.55;;
25231;SDS011;13176;51.140;6.290;2022-11-20T08:38:08;38.45;;;30.25;;
25231;SDS011;13176;51.140;6.290;2022-11-20T08:40:35;35.20;;;27.35;;
25231;SDS011;13176;51.140;6.290;2022-11-20T08:43:01;35.03;;;27.08;;
25231;SDS011;13176;51.140;6.290;2022-11-20T08:45:27;37.35;;;28.08;;
25231;SDS011;13176;51.140;6.290;2022-11-20T08:47:59;35.83;;;28.73;;
25231;SDS011;13176;51.140;6.290;2022-11-20T08:50:27;42.72;;;31.63;;
25231;SDS011;13176;51.140;6.290;2022-11-20T08:52:54;34.60;;;28.42;;
25231;SDS011;13176;51.140;6.290;2022-11-20T08:55:20;34.28;;;28.67;;
25231;SDS011;13176;51.140;6.290;2022-11-20T08:57:46;36.40;;;28.23;;
25231;SDS011;13176;51.140;6.290;2022-11-20T09:00:16;34.78;;;28.05;;
25231;SDS011;13176;51.140;6.290;2022-11-20T09:02:43;34.20;;;29.40;;
25231;SDS011;13176;51.140;6.290;2022-11-20T09:05:09;40.33;;;30.70;;
25231;SDS011;13176;51.140;6.290;2022-11-20T09:07:35;36.67;;;31.30;;
25231;SDS011;13176;51.140;6.290;2022-11-20T09:10:02;35.90;;;29.38;;
25231;SDS011;13176;51.140;6.290;2022-11-20T09:12:49;33.75;;;29.48;;
25231;SDS011;13176;51.140;6.290;2022-11-20T09:15:16;35.50;;;31.70;;
25231;SDS011;13176;51.140;6.290;2022-11-20T09:17:55;34.28;;;28.92;;
25231;SDS011;13176;51.140;6.290;2022-11-20T09:20:24;31.67;;;28.05;;
25231;SDS011;13176;51.140;6.290;2022-11-20T09:22:51;32.58;;;27.13;;
25231;SDS011;13176;51.140;6.290;2022-11-20T09:25:18;30.80;;;26.63;;
25231;SDS011;13176;51.140;6.290;2022-11-20T09:27:44;31.55;;;27.77;;
25231;SDS011;13176;51.140;6.290;2022-11-20T09:30:12;27.90;;;24.98;;
25231;SDS011;13176;51.140;6.290;2022-11-20T09:32:40;28.88;;;24.40;;
25231;SDS011;13176;51.140;6.290;2022-11-20T09:35:07;28.90;;;24.52;;
25231;SDS011;13176;51.140;6.290;2022-11-20T09:37:35;28.70;;;22.83;;
25231;SDS011;13176;51.140;6.290;2022-11-20T09:40:02;25.13;;;22.50;;
25231;SDS011;13176;51.140;6.290;2022-11-20T09:45:10;31.55;;;26.52;;
25231;SDS011;13176;51.140;6.290;2022-11-20T09:50:52;30.00;;;23.90;;
25231;SDS011;13176;51.140;6.290;2022-11-20T09:53:52;28.42;;;23.70;;
25231;SDS011;13176;51.140;6.290;2022-11-20T09:56:23;29.55;;;22.25;;
25231;SDS011;13176;51.140;6.290;2022-11-20T09:58:52;25.77;;;23.05;;
25231;SDS011;13176;51.140;6.290;2022-11-20T10:01:26;25.67;;;22.52;;
25231;SDS011;13176;51.140;6.290;2022-11-20T10:06:55;25.95;;;22.40;;
25231;SDS011;13176;51.140;6.290;2022-11-20T10:09:53;24.85;;;21.45;;
25231;SDS011;13176;51.140;6.290;2022-11-20T10:14:53;25.92;;;22.08;;
25231;SDS011;13176;51.140;6.290;2022-11-20T10:18:09;26.95;;;21.77;;
25231;SDS011;13176;51.140;6.290;2022-11-20T10:20:58;23.90;;;20.42;;
25231;SDS011;13176;51.140;6.290;2022-11-20T10:29:15;24.42;;;21.88;;
25231;SDS011;13176;51.140;6.290;2022-11-20T10:31:44;25.90;;;21.80;;
25231;SDS011;13176;51.140;6.290;2022-11-20T10:34:19;23.75;;;21.25;;
25231;SDS011;13176;51.140;6.290;2022-11-20T10:36:55;23.58;;;21.17;;
25231;SDS011;13176;51.140;6.290;2022-11-20T10:42:32;24.75;;;21.10;;
25231;SDS011;13176;51.140;6.290;2022-11-20T10:48:24;24.15;;;21.73;;
25231;SDS011;13176;51.140;6.290;2022-11-20T11:01:51;23.73;;;21.23;;
25231;SDS011;13176;51.140;6.290;2022-11-20T11:04:33;25.08;;;22.25;;
25231;SDS011;13176;51.140;6.290;2022-11-20T11:07:13;24.60;;;21.97;;
25231;SDS011;13176;51.140;6.290;2022-11-20T11:09:49;24.00;;;20.33;;
25231;SDS011;13176;51.140;6.290;2022-11-20T11:12:19;23.27;;;20.63;;
25231;SDS011;13176;51.140;6.290;2022-11-20T11:14:49;23.45;;;20.80;;
25231;SDS011;13176;51.140;6.290;2022-11-20T11:17:20;26.77;;;21.33;;
25231;SDS011;13176;51.140;6.290;2022-11-20T11:20:14;25.73;;;23.10;;
25231;SDS011;13176;51.140;6.290;2022-11-20T11:25:22;21.85;;;19.63;;
25231;SDS011;13176;51.140;6.290;2022-11-20T11:27:51;26.50;;;22.60;;
25231;SDS011;13176;51.140;6.290;2022-11-20T11:30:19;24.80;;;21.60;;
25231;SDS011;13176;51.140;6.290;2022-11-20T11:32:46;25.88;;;22.33;;
25231;SDS011;13176;51.140;6.290;2022-11-20T11:35:20;24.02;;;21.58;;
25231;SDS011;13176;51.140;6.290;2022-11-20T11:37:51;23.58;;;20.92;;
25231;SDS011;13176;51.140;6.290;2022-11-20T11:40:21;22.98;;;20.70;;
25231;SDS011;13176;51.140;6.290;2022-11-20T11:42:52;27.27;;;21.30;;
25231;SDS011;13176;51.140;6.290;2022-11-20T11:45:24;23.92;;;21.45;;
25231;SDS011;13176;51.140;6.290;2022-11-20T11:47:50;24.08;;;20.27;;
25231;SDS011;13176;51.140;6.290;2022-11-20T11:50:21;24.98;;;22.40;;
25231;SDS011;13176;51.140;6.290;2022-11-20T11:55:43;23.92;;;21.45;;
25231;SDS011;13176;51.140;6.290;2022-11-20T11:58:20;28.08;;;23.88;;
25231;SDS011;13176;51.140;6.290;2022-11-20T12:07:18;25.73;;;23.05;;
25231;SDS011;13176;51.140;6.290;2022-11-20T12:10:18;25.85;;;23.10;;
25231;SDS011;13176;51.140;6.290;2022-11-20T12:12:49;23.50;;;21.15;;
25231;SDS011;13176;51.140;6.290;2022-11-20T12:15:24;25.55;;;23.10;;
25231;SDS011;13176;51.140;6.290;2022-11-20T12:17:54;26.33;;;23.83;;
25231;SDS011;13176;51.140;6.290;2022-11-20T12:20:30;28.02;;;25.25;;
25231;SDS011;13176;51.140;6.290;2022-11-20T12:23:16;29.27;;;26.27;;
25231;SDS011;13176;51.140;6.290;2022-11-20T12:29:03;30.63;;;27.73;;
25231;SDS011;13176;51.140;6.290;2022-11-20T12:31:47;31.13;;;27.95;;
25231;SDS011;13176;51.140;6.290;2022-11-20T12:39:40;27.55;;;24.48;;
25231;SDS011;13176;51.140;6.290;2022-11-20T12:42:23;31.02;;;27.75;;
25231;SDS011;13176;51.140;6.290;2022-11-20T12:51:02;34.08;;;30.88;;
25231;SDS011;13176;51.140;6.290;2022-11-20T12:53:51;32.13;;;28.80;;
25231;SDS011;13176;51.140;6.290;2022-11-20T13:02:14;32.83;;;29.63;;
25231;SDS011;13176;51.140;6.290;2022-11-20T13:07:10;35.13;;;32.05;;
25231;SDS011;13176;51.140;6.290;2022-11-20T13:09:40;33.42;;;30.42;;
25231;SDS011;13176;51.140;6.290;2022-11-20T13:18:11;29.70;;;26.50;;
25231;SDS011;13176;51.140;6.290;2022-11-20T13:20:44;31.17;;;28.10;;
25231;SDS011;13176;51.140;6.290;2022-11-20T13:23:22;34.20;;;28.30;;
25231;SDS011;13176;51.140;6.290;2022-11-20T13:26:02;32.85;;;29.35;;
25231;SDS011;13176;51.140;6.290;2022-11-20T13:28:30;32.15;;;28.92;;
25231;SDS011;13176;51.140;6.290;2022-11-20T13:30:59;34.72;;;31.33;;
25231;SDS011;13176;51.140;6.290;2022-11-20T13:33:32;34.20;;;31.00;;
25231;SDS011;13176;51.140;6.290;2022-11-20T13:36:03;33.45;;;30.40;;
25231;SDS011;13176;51.140;6.290;2022-11-20T13:38:43;34.42;;;30.95;;
25231;SDS011;13176;51.140;6.290;2022-11-20T13:41:22;32.30;;;28.98;;
25231;SDS011;13176;51.140;6.290;2022-11-20T13:46:50;39.53;;;35.72;;
25231;SDS011;13176;51.140;6.290;2022-11-20T13:49:18;35.88;;;32.42;;
25231;SDS011;13176;51.140;6.290;2022-11-20T14:00:30;30.75;;;26.95;;
25231;SDS011;13176;51.140;6.290;2022-11-20T14:02:59;32.85;;;29.23;;
25231;SDS011;13176;51.140;6.290;2022-11-20T14:05:37;33.17;;;30.02;;
25231;SDS011;13176;51.140;6.290;2022-11-20T14:08:11;33.28;;;29.77;;
25231;SDS011;13176;51.140;6.290;2022-11-20T14:10:47;30.25;;;27.20;;
25231;SDS011;13176;51.140;6.290;2022-11-20T14:13:20;31.75;;;28.63;;
25231;SDS011;13176;51.140;6.290;2022-11-20T14:15:47;33.80;;;30.55;;
25231;SDS011;13176;51.140;6.290;2022-11-20T14:18:14;33.10;;;30.05;;
25231;SDS011;13176;51.140;6.290;2022-11-20T14:20:53;35.30;;;31.67;;
25231;SDS011;13176;51.140;6.290;2022-11-20T14:23:24;35.85;;;32.33;;
25231;SDS011;13176;51.140;6.290;2022-11-20T14:25:55;32.78;;;29.60;;
25231;SDS011;13176;51.140;6.290;2022-11-20T14:28:26;34.13;;;30.70;;
25231;SDS011;13176;51.140;6.290;2022-11-20T14:31:00;32.70;;;29.60;;
25231;SDS011;13176;51.140;6.290;2022-11-20T14:33:27;33.35;;;30.23;;
25231;SDS011;13176;51.140;6.290;2022-11-20T14:35:54;33.17;;;29.77;;
25231;SDS011;13176;51.140;6.290;2022-11-20T14:38:28;33.58;;;30.38;;
25231;SDS011;13176;51.140;6.290;2022-11-20T14:41:16;34.47;;;30.83;;
25231;SDS011;13176;51.140;6.290;2022-11-20T14:43:45;32.42;;;29.40;;
25231;SDS011;13176;51.140;6.290;2022-11-20T14:46:19;36.03;;;32.83;;
25231;SDS011;13176;51.140;6.290;2022-11-20T14:48:50;33.67;;;30.33;;
25231;SDS011;13176;51.140;6.290;2022-11-20T14:54:16;34.05;;;31.02;;
25231;SDS011;13176;51.140;6.290;2022-11-20T14:56:56;35.13;;;31.90;;
25231;SDS011;13176;51.140;6.290;2022-11-20T14:59:25;33.42;;;30.33;;
25231;SDS011;13176;51.140;6.290;2022-11-20T15:02:10;33.65;;;30.63;;
25231;SDS011;13176;51.140;6.290;2022-11-20T15:04:59;32.28;;;29.35;;
25231;SDS011;13176;51.140;6.290;2022-11-20T15:07:32;33.03;;;30.02;;
25231;SDS011;13176;51.140;6.290;2022-11-20T15:10:07;33.45;;;30.55;;
25231;SDS011;13176;51.140;6.290;2022-11-20T15:12:39;37.15;;;33.85;;
25231;SDS011;13176;51.140;6.290;2022-11-20T15:15:16;36.85;;;33.58;;
25231;SDS011;13176;51.140;6.290;2022-11-20T15:17:54;38.05;;;34.63;;
25231;SDS011;13176;51.140;6.290;2022-11-20T15:20:25;39.58;;;36.33;;
25231;SDS011;13176;51.140;6.290;2022-11-20T15:22:55;45.30;;;41.40;;
25231;SDS011;13176;51.140;6.290;2022-11-20T15:25:22;44.83;;;41.05;;
25231;SDS011;13176;51.140;6.290;2022-11-20T15:27:55;48.58;;;44.58;;
25231;SDS011;13176;51.140;6.290;2022-11-20T15:30:23;54.10;;;49.72;;
25231;SDS011;13176;51.140;6.290;2022-11-20T15:32:50;56.78;;;52.58;;
25231;SDS011;13176;51.140;6.290;2022-11-20T15:35:16;54.80;;;50.67;;
25231;SDS011;13176;51.140;6.290;2022-11-20T15:37:43;58.05;;;53.47;;
25231;SDS011;13176;51.140;6.290;2022-11-20T15:40:11;61.22;;;56.53;;
25231;SDS011;13176;51.140;6.290;2022-11-20T15:42:38;60.63;;;55.88;;
25231;SDS011;13176;51.140;6.290;2022-11-20T15:45:27;63.92;;;58.58;;
25231;SDS011;13176;51.140;6.290;2022-11-20T15:48:00;63.30;;;58.30;;
25231;SDS011;13176;51.140;6.290;2022-11-20T15:50:43;68.47;;;63.00;;
25231;SDS011;13176;51.140;6.290;2022-11-20T15:53:23;64.07;;;59.20;;
25231;SDS011;13176;51.140;6.290;2022-11-20T15:56:03;67.10;;;61.67;;
25231;SDS011;13176;51.140;6.290;2022-11-20T16:08:02;67.45;;;62.30;;
25231;SDS011;13176;51.140;6.290;2022-11-20T16:10:36;66.20;;;61.42;;
25231;SDS011;13176;51.140;6.290;2022-11-20T16:13:11;67.82;;;62.28;;
25231;SDS011;13176;51.140;6.290;2022-11-20T16:15:58;72.07;;;66.20;;
25231;SDS011;13176;51.140;6.290;2022-11-20T16:18:27;70.35;;;65.05;;
25231;SDS011;13176;51.140;6.290;2022-11-20T16:24:26;69.82;;;64.13;;
25231;SDS011;13176;51.140;6.290;2022-11-20T16:30:51;65.32;;;60.40;;
25231;SDS011;13176;51.140;6.290;2022-11-20T16:33:21;63.13;;;58.58;;
25231;SDS011;13176;51.140;6.290;2022-11-20T16:35:48;68.22;;;63.35;;
25231;SDS011;13176;51.140;6.290;2022-11-20T16:38:14;64.10;;;59.53;;